Time;durP1;ratioP1;P1;durP2;ratioP2;P2;SDS_P1;SDS_P2;PMS_P1;PMS_P2;Temp;Humidity;BMP_temperature;BMP_pressure;BME280_temperature;BME280_humidity;BME280_pressure;Samples;Min_cycle;Max_cycle;Signal;HPM_P1;HPM_P2
2023/04/01 00:02:17;;;;;;;7.83;3.13;;;10.30;99.90;;;;;;5096627;28;20168;-73
2023/04/01 00:04:43;;;;;;;8.47;2.77;;;10.30;99.90;;;;;;5096615;28;20225;-74
2023/04/01 00:07:10;;;;;;;6.57;2.83;;;10.30;99.90;;;;;;5096707;28;20168;-73
2023/04/01 00:09:37;;;;;;;5.67;3.10;;;10.30;99.90;;;;;;5096509;28;20168;-73
2023/04/01 00:12:03;;;;;;;4.87;3.00;;;10.30;99.90;;;;;;5096133;28;20224;-73
2023/04/01 00:14:29;;;;;;;6.33;3.00;;;10.30;99.90;;;;;;5096245;28;20176;-73
2023/04/01 00:16:55;;;;;;;7.37;3.43;;;10.30;99.90;;;;;;5096388;28;20172;-73
2023/04/01 00:19:20;;;;;;;7.40;3.37;;;10.30;99.90;;;;;;5095889;28;20250;-73
2023/04/01 00:21:47;;;;;;;10.60;3.57;;;10.30;99.90;;;;;;5078083;28;20509;-72
2023/04/01 00:24:13;;;;;;;9.83;3.23;;;10.30;99.90;;;;;;5096203;28;20221;-73
2023/04/01 00:26:39;;;;;;;4.20;2.90;;;10.30;99.90;;;;;;5095587;28;20635;-72
2023/04/01 00:29:05;;;;;;;9.10;3.60;;;10.30;99.90;;;;;;5096013;28;20172;-73
2023/04/01 00:31:30;;;;;;;7.90;3.50;;;10.20;99.90;;;;;;5096153;28;20167;-73
2023/04/01 00:33:56;;;;;;;6.20;3.30;;;10.20;99.90;;;;;;5095975;28;20254;-73
2023/04/01 00:36:22;;;;;;;5.33;3.10;;;10.20;99.90;;;;;;5096068;28;20651;-73
2023/04/01 00:38:50;;;;;;;9.43;3.40;;;10.30;99.90;;;;;;5095859;28;20199;-73
2023/04/01 00:41:17;;;;;;;5.23;2.70;;;10.20;99.90;;;;;;5095444;28;20179;-73
2023/04/01 00:43:44;;;;;;;5.40;2.80;;;10.20;99.90;;;;;;5096016;28;20222;-73
2023/04/01 00:46:10;;;;;;;5.37;2.40;;;10.20;99.90;;;;;;5095931;28;20172;-72
2023/04/01 00:48:39;;;;;;;6.90;2.50;;;10.20;99.90;;;;;;5095678;28;20246;-73
2023/04/01 00:51:16;;;;;;;7.43;2.90;;;10.20;99.90;;;;;;5095806;28;20192;-73
2023/04/01 00:53:45;;;;;;;3.90;2.53;;;10.20;99.90;;;;;;5095781;28;20175;-73
2023/04/01 00:56:17;;;;;;;5.77;2.40;;;10.20;99.90;;;;;;5095041;28;20309;-73
2023/04/01 00:58:48;;;;;;;5.63;2.47;;;10.10;99.90;;;;;;5095672;28;20561;-72
2023/04/01 01:01:13;;;;;;;5.53;2.10;;;10.20;99.90;;;;;;5095597;28;20639;-73
2023/04/01 01:03:39;;;;;;;4.80;2.20;;;10.10;99.90;;;;;;5095637;28;20168;-72
2023/04/01 01:06:28;;;;;;;6.83;2.00;;;10.20;99.90;;;;;;5095462;28;20657;-72
2023/04/01 01:09:22;;;;;;;3.27;1.60;;;10.20;99.90;;;;;;5095265;28;20748;-72
2023/04/01 01:11:57;;;;;;;4.47;1.60;;;10.20;99.90;;;;;;5095549;28;20168;-72
2023/04/01 01:14:29;;;;;;;3.27;1.87;;;10.20;99.90;;;;;;5095299;28;20175;-71
2023/04/01 01:17:01;;;;;;;4.87;1.77;;;10.20;99.90;;;;;;5095135;28;20179;-73
2023/04/01 01:20:06;;;;;;;2.73;1.50;;;10.20;99.90;;;;;;5095149;28;20293;-73
2023/04/01 01:22:51;;;;;;;4.53;1.60;;;10.30;99.90;;;;;;5095386;28;20250;-73
2023/04/01 01:25:42;;;;;;;3.33;1.53;;;10.30;99.90;;;;;;5094670;28;20172;-73
2023/04/01 01:28:19;;;;;;;3.67;1.47;;;10.30;99.90;;;;;;5095037;28;20171;-73
2023/04/01 01:31:15;;;;;;;2.40;1.60;;;10.30;99.90;;;;;;5094956;28;20557;-73
2023/04/01 01:34:15;;;;;;;2.37;1.37;;;10.30;99.90;;;;;;5095083;28;20207;-73
2023/04/01 01:36:44;;;;;;;3.00;1.27;;;10.20;99.90;;;;;;5094914;28;20188;-73
2023/04/01 01:39:12;;;;;;;3.63;2.10;;;10.20;99.90;;;;;;5094498;28;20204;-73
2023/04/01 01:41:41;;;;;;;1.93;1.70;;;10.20;99.90;;;;;;5094843;28;20164;-73
2023/04/01 01:44:09;;;;;;;3.23;1.93;;;10.10;99.90;;;;;;5094730;28;20172;-73
2023/04/01 01:46:37;;;;;;;2.10;1.90;;;10.10;99.90;;;;;;5094143;28;20264;-73
2023/04/01 01:49:04;;;;;;;2.87;2.07;;;10.20;99.90;;;;;;5094442;28;20183;-73
2023/04/01 01:51:30;;;;;;;2.40;2.07;;;10.20;99.90;;;;;;5094954;28;20192;-72
2023/04/01 01:53:56;;;;;;;4.73;2.77;;;10.20;99.90;;;;;;5094285;28;20222;-73
2023/04/01 01:56:25;;;;;;;3.83;3.27;;;10.20;99.90;;;;;;5094336;28;20179;-72
2023/04/01 01:59:00;;;;;;;4.10;3.70;;;10.20;99.90;;;;;;5094435;28;20203;-72
2023/04/01 02:01:29;;;;;;;5.33;4.30;;;10.10;99.90;;;;;;5094458;28;20195;-74
2023/04/01 02:03:57;;;;;;;5.97;4.73;;;10.10;99.90;;;;;;5094339;28;20182;-73
2023/04/01 02:06:26;;;;;;;7.33;4.20;;;10.10;99.90;;;;;;5094255;28;20168;-73
2023/04/01 02:09:00;;;;;;;7.50;4.53;;;10.20;99.90;;;;;;5094006;28;20247;-73
2023/04/01 02:11:38;;;;;;;4.87;4.30;;;10.20;99.90;;;;;;5094299;28;20265;-74
2023/04/01 02:14:06;;;;;;;5.90;4.03;;;10.20;99.90;;;;;;5094072;28;20253;-72
2023/04/01 02:16:52;;;;;;;5.03;3.90;;;10.10;99.90;;;;;;5094055;28;20699;-72
2023/04/01 02:19:22;;;;;;;8.37;4.33;;;10.10;99.90;;;;;;5093682;28;20234;-72
2023/04/01 02:21:52;;;;;;;4.83;3.97;;;10.10;99.90;;;;;;5093885;28;20168;-73
2023/04/01 02:24:21;;;;;;;7.30;4.47;;;10.10;99.90;;;;;;5094092;28;20206;-74
2023/04/01 02:26:47;;;;;;;7.73;4.67;;;10.10;99.90;;;;;;5075716;28;20187;-73
2023/04/01 02:29:13;;;;;;;5.57;4.53;;;10.00;99.90;;;;;;5094095;28;20175;-73
2023/04/01 02:31:39;;;;;;;5.00;4.20;;;10.10;99.90;;;;;;5094124;28;20225;-73
2023/04/01 02:34:05;;;;;;;8.50;3.83;;;10.00;99.90;;;;;;5093741;28;20221;-72
2023/04/01 02:36:31;;;;;;;5.53;3.70;;;10.00;99.90;;;;;;5093487;28;20650;-73
2023/04/01 02:39:02;;;;;;;9.33;4.10;;;10.00;99.90;;;;;;5093627;28;20281;-73
2023/04/01 02:41:28;;;;;;;8.07;3.40;;;10.00;99.90;;;;;;5093745;28;20172;-73
2023/04/01 02:43:53;;;;;;;4.33;3.70;;;9.80;99.90;;;;;;5093757;28;20182;-73
2023/04/01 02:46:19;;;;;;;7.87;3.40;;;9.90;99.90;;;;;;5093700;28;20527;-73
2023/04/01 02:48:45;;;;;;;5.00;3.30;;;9.90;99.90;;;;;;5093521;28;20178;-73
2023/04/01 02:51:10;;;;;;;7.20;3.57;;;9.90;99.90;;;;;;5093171;28;20692;-73
2023/04/01 02:53:36;;;;;;;6.40;3.17;;;9.90;99.90;;;;;;5093390;28;20221;-72
2023/04/01 02:56:01;;;;;;;9.27;3.60;;;9.90;99.90;;;;;;5093238;28;20627;-73
2023/04/01 02:58:27;;;;;;;7.90;3.47;;;9.90;99.90;;;;;;5092718;28;20219;-72
2023/04/01 03:00:52;;;;;;;13.33;3.80;;;9.90;99.90;;;;;;5093182;28;20203;-72
2023/04/01 03:03:18;;;;;;;8.73;3.53;;;9.90;99.90;;;;;;5093383;28;20176;-73
2023/04/01 03:05:44;;;;;;;10.30;3.70;;;9.90;99.90;;;;;;5092975;28;20199;-73
2023/04/01 03:08:10;;;;;;;6.00;3.30;;;9.90;99.90;;;;;;5093243;28;20194;-72
2023/04/01 03:10:35;;;;;;;7.13;3.60;;;9.90;99.90;;;;;;5093333;28;20649;-73
2023/04/01 03:13:01;;;;;;;5.80;3.63;;;9.90;99.90;;;;;;5093194;28;20259;-72
2023/04/01 03:15:26;;;;;;;6.53;3.53;;;10.00;99.90;;;;;;5092871;28;20533;-74
2023/04/01 03:17:52;;;;;;;5.20;3.87;;;10.00;99.90;;;;;;5092665;28;20639;-73
2023/04/01 03:20:18;;;;;;;4.90;3.70;;;9.90;99.90;;;;;;5092883;28;20184;-73
2023/04/01 03:22:43;;;;;;;6.10;4.03;;;10.00;99.90;;;;;;5075045;28;20627;-73
2023/04/01 03:25:10;;;;;;;9.83;5.07;;;10.00;99.90;;;;;;5093450;28;20174;-72
2023/04/01 03:27:35;;;;;;;9.00;5.83;;;10.00;99.90;;;;;;5092915;28;20175;-73
2023/04/01 03:30:03;;;;;;;8.13;5.43;;;10.00;99.90;;;;;;5093028;28;20172;-73
2023/04/01 03:32:28;;;;;;;9.97;6.10;;;9.90;99.90;;;;;;5092956;28;20190;-73
2023/04/01 03:34:54;;;;;;;11.13;6.20;;;9.90;99.90;;;;;;5092643;28;20172;-73
2023/04/01 03:37:20;;;;;;;7.90;5.43;;;10.00;99.90;;;;;;5092999;28;20524;-73
2023/04/01 03:39:45;;;;;;;13.83;6.67;;;10.00;99.90;;;;;;5074829;28;20627;-73
2023/04/01 03:42:12;;;;;;;11.07;6.00;;;10.00;99.90;;;;;;5092820;28;20167;-73
2023/04/01 03:44:37;;;;;;;10.50;6.57;;;10.00;99.90;;;;;;5093178;28;20184;-73
2023/04/01 03:47:03;;;;;;;10.47;6.20;;;10.10;99.90;;;;;;5092761;28;20199;-74
2023/04/01 03:49:29;;;;;;;8.20;6.13;;;10.10;99.90;;;;;;5092237;28;20203;-74
2023/04/01 03:51:55;;;;;;;9.37;6.50;;;10.00;99.90;;;;;;5092716;28;20552;-73
2023/04/01 03:54:20;;;;;;;14.10;5.90;;;10.10;99.90;;;;;;5074884;28;20179;-72
2023/04/01 03:56:46;;;;;;;15.37;6.63;;;10.10;99.90;;;;;;5092635;28;20160;-73
2023/04/01 03:59:12;;;;;;;14.63;6.57;;;10.10;99.90;;;;;;5092700;28;20210;-74
2023/04/01 04:01:38;;;;;;;10.90;6.30;;;10.10;99.90;;;;;;5092959;28;20168;-74
2023/04/01 04:04:04;;;;;;;12.73;6.13;;;10.10;99.90;;;;;;5092400;28;20224;-74
2023/04/01 04:06:30;;;;;;;9.13;6.23;;;10.10;99.90;;;;;;5092684;28;20195;-73
2023/04/01 04:08:56;;;;;;;12.23;6.40;;;10.10;99.90;;;;;;5094460;28;20184;-73
2023/04/01 04:11:22;;;;;;;10.27;6.20;;;10.10;99.90;;;;;;5096345;28;20176;-73
2023/04/01 04:13:48;;;;;;;9.30;5.67;;;10.20;99.90;;;;;;5095807;28;20164;-73
2023/04/01 04:16:14;;;;;;;7.97;5.70;;;10.10;99.90;;;;;;5096005;28;20309;-73
2023/04/01 04:18:40;;;;;;;14.67;6.43;;;10.10;99.90;;;;;;5095688;28;20227;-74
2023/04/01 04:21:06;;;;;;;10.17;5.70;;;10.10;99.90;;;;;;5095880;28;20182;-73
2023/04/01 04:23:33;;;;;;;10.60;6.00;;;10.00;99.90;;;;;;5096161;28;20187;-72
2023/04/01 04:26:07;;;;;;;9.20;5.73;;;10.00;99.90;;;;;;5096061;28;20160;-73
2023/04/01 04:28:34;;;;;;;6.53;5.20;;;9.90;99.90;;;;;;5095692;28;20256;-74
2023/04/01 04:31:00;;;;;;;9.43;4.83;;;9.90;99.90;;;;;;5096373;28;20270;-73
2023/04/01 04:33:26;;;;;;;9.03;5.07;;;9.80;99.90;;;;;;5095558;28;20172;-73
2023/04/01 04:35:55;;;;;;;5.17;4.33;;;9.90;99.90;;;;;;5095717;28;20180;-72
2023/04/01 04:38:21;;;;;;;7.10;4.60;;;9.90;99.90;;;;;;5095848;28;20207;-73
2023/04/01 04:40:47;;;;;;;6.13;4.70;;;9.80;99.90;;;;;;5095837;28;20174;-73
2023/04/01 04:43:14;;;;;;;6.60;3.83;;;9.80;99.90;;;;;;5094901;28;20168;-73
2023/04/01 04:45:40;;;;;;;3.90;3.43;;;9.90;99.90;;;;;;5095928;28;20220;-72
2023/04/01 04:48:12;;;;;;;4.17;3.60;;;9.80;99.90;;;;;;5095188;28;20251;-73
2023/04/01 04:50:40;;;;;;;3.83;3.40;;;9.80;99.90;;;;;;5095534;28;20253;-73
2023/04/01 04:53:05;;;;;;;4.73;3.63;;;9.90;99.90;;;;;;5095706;28;20172;-72
2023/04/01 04:55:31;;;;;;;5.30;3.87;;;9.80;99.90;;;;;;5095266;28;20176;-72
2023/04/01 04:57:57;;;;;;;4.60;3.43;;;9.90;99.90;;;;;;5095038;28;20212;-73
2023/04/01 05:00:22;;;;;;;3.70;3.40;;;9.80;99.90;;;;;;5095417;28;20255;-73
2023/04/01 05:02:48;;;;;;;3.67;2.90;;;9.80;99.90;;;;;;5095127;28;20666;-73
2023/04/01 05:05:14;;;;;;;4.43;3.20;;;9.80;99.90;;;;;;5095311;28;20286;-74
2023/04/01 05:07:39;;;;;;;3.60;3.27;;;9.90;99.90;;;;;;5095076;28;20183;-72
2023/04/01 05:10:06;;;;;;;3.63;3.33;;;9.90;99.90;;;;;;5094818;28;20203;-74
2023/04/01 05:12:35;;;;;;;4.00;3.60;;;9.90;99.90;;;;;;5094922;28;20237;-73
2023/04/01 05:15:02;;;;;;;3.47;3.17;;;9.90;99.90;;;;;;5095231;28;20639;-73
2023/04/01 05:17:28;;;;;;;4.93;3.87;;;9.90;99.90;;;;;;5094384;28;20176;-73
2023/04/01 05:19:53;;;;;;;4.37;4.07;;;9.90;99.90;;;;;;5094122;28;20567;-74
2023/04/01 05:22:19;;;;;;;6.57;4.13;;;9.90;99.90;;;;;;5094914;28;20167;-74
2023/04/01 05:24:45;;;;;;;4.77;4.23;;;9.90;99.90;;;;;;5094692;28;20627;-75
2023/04/01 05:27:11;;;;;;;4.87;4.17;;;9.90;99.90;;;;;;5095071;28;20172;-74
2023/04/01 05:29:36;;;;;;;5.07;4.37;;;9.90;99.90;;;;;;5094515;28;20639;-74
2023/04/01 05:32:02;;;;;;;8.03;4.57;;;9.80;99.90;;;;;;5094670;28;20168;-73
2023/04/01 05:34:27;;;;;;;10.13;4.53;;;9.80;99.90;;;;;;5094778;28;20168;-74
2023/04/01 05:36:53;;;;;;;7.07;5.10;;;9.80;99.90;;;;;;5094439;28;20562;-73
2023/04/01 05:39:19;;;;;;;10.10;5.57;;;9.80;99.90;;;;;;5094192;28;20315;-72
2023/04/01 05:41:45;;;;;;;6.57;4.93;;;9.80;99.90;;;;;;5076598;28;20187;-73
2023/04/01 05:44:12;;;;;;;10.60;6.10;;;9.90;99.90;;;;;;5094702;28;20180;-73
2023/04/01 05:46:37;;;;;;;8.43;6.07;;;9.90;99.90;;;;;;5093867;28;20168;-73
2023/04/01 05:49:03;;;;;;;12.33;5.83;;;9.80;99.90;;;;;;5094197;28;20524;-74
2023/04/01 05:51:29;;;;;;;11.53;6.20;;;9.80;99.90;;;;;;5094315;28;20241;-74
2023/04/01 05:53:54;;;;;;;12.53;6.30;;;9.90;99.90;;;;;;5094115;28;20278;-75
2023/04/01 05:56:20;;;;;;;12.90;6.43;;;9.80;99.90;;;;;;5093794;28;20168;-74
2023/04/01 05:58:51;;;;;;;11.30;6.77;;;9.80;99.90;;;;;;5094492;28;20195;-73
2023/04/01 06:01:18;;;;;;;13.33;7.23;;;9.80;99.90;;;;;;5093551;28;20220;-73
2023/04/01 06:03:44;;;;;;;12.30;7.30;;;9.80;99.90;;;;;;5094063;28;20310;-74
2023/04/01 06:06:34;;;;;;;14.13;7.00;;;9.90;99.90;;;;;;5093944;28;20209;-73
2023/04/01 06:09:16;;;;;;;9.90;7.07;;;9.90;99.90;;;;;;5094385;28;20618;-74
2023/04/01 06:12:15;;;;;;;9.37;7.00;;;9.80;99.90;;;;;;5075780;28;20194;-73
2023/04/01 06:14:58;;;;;;;11.00;7.77;;;9.90;99.90;;;;;;5093398;28;20175;-73
2023/04/01 06:17:41;;;;;;;13.83;8.40;;;9.90;99.90;;;;;;5093846;28;20249;-73
2023/04/01 06:20:41;;;;;;;10.73;7.80;;;9.90;99.90;;;;;;5093793;28;20216;-72
2023/04/01 06:23:14;;;;;;;11.00;7.87;;;9.80;99.90;;;;;;5093454;28;20168;-71
2023/04/01 06:25:40;;;;;;;11.90;7.80;;;9.80;99.90;;;;;;5093380;28;20207;-72
2023/04/01 06:28:08;;;;;;;13.03;7.57;;;9.80;99.90;;;;;;5093675;28;20168;-72
2023/04/01 06:30:49;;;;;;;12.57;7.33;;;9.80;99.90;;;;;;5092930;28;20164;-72
2023/04/01 06:33:41;;;;;;;11.33;7.70;;;9.80;99.90;;;;;;5093803;28;20175;-73
2023/04/01 06:36:26;;;;;;;14.03;7.13;;;9.80;99.90;;;;;;5074639;28;20199;-73
2023/04/01 06:38:55;;;;;;;12.23;7.00;;;9.90;99.90;;;;;;5093211;28;20211;-73
2023/04/01 06:41:49;;;;;;;10.70;6.83;;;9.90;99.90;;;;;;5093333;28;20164;-73
2023/04/01 06:44:27;;;;;;;10.70;6.83;;;9.90;99.90;;;;;;5090859;28;20614;-73
2023/04/01 06:47:14;;;;;;;7.27;6.57;;;9.90;99.90;;;;;;5093063;28;20309;-73
2023/04/01 06:49:58;;;;;;;8.53;6.73;;;9.90;99.90;;;;;;5093029;28;20179;-73
2023/04/01 06:52:45;;;;;;;7.70;6.37;;;9.90;99.90;;;;;;5093164;28;20185;-73
2023/04/01 06:55:13;;;;;;;12.03;6.90;;;9.90;99.90;;;;;;5093320;28;20293;-72
2023/04/01 06:57:44;;;;;;;10.83;6.60;;;9.90;99.90;;;;;;5092136;28;20200;-72
2023/04/01 07:00:32;;;;;;;8.30;6.33;;;9.90;99.90;;;;;;5092844;28;20232;-73
2023/04/01 07:03:23;;;;;;;10.40;6.70;;;10.00;99.90;;;;;;5093156;28;20168;-73
2023/04/01 07:05:50;;;;;;;7.40;6.23;;;10.00;99.90;;;;;;5092858;28;20548;-72
2023/04/01 07:08:22;;;;;;;7.80;6.37;;;10.00;99.90;;;;;;5092593;28;20250;-72
2023/04/01 07:10:58;;;;;;;6.87;5.67;;;10.00;99.90;;;;;;5092701;28;20202;-74
2023/04/01 07:13:59;;;;;;;6.30;5.00;;;10.00;99.90;;;;;;5092429;28;20193;-72
2023/04/01 07:16:31;;;;;;;5.43;4.93;;;10.00;99.90;;;;;;5092687;28;20167;-73
2023/04/01 07:19:09;;;;;;;5.90;4.77;;;10.10;99.90;;;;;;5092473;28;20228;-73
2023/04/01 07:21:47;;;;;;;6.60;4.83;;;10.20;99.90;;;;;;5092486;28;20213;-73
2023/04/01 07:24:31;;;;;;;5.47;4.53;;;10.20;99.90;;;;;;5092503;28;20171;-73
2023/04/01 07:26:57;;;;;;;5.77;3.80;;;10.20;99.90;;;;;;5092357;28;20167;-73
2023/04/01 07:29:24;;;;;;;4.10;3.57;;;10.20;99.90;;;;;;5092532;28;20243;-74
2023/04/01 07:32:05;;;;;;;3.40;3.20;;;10.20;99.90;;;;;;5092504;28;20525;-74
2023/04/01 07:34:52;;;;;;;4.77;3.60;;;10.20;99.90;;;;;;5092889;28;20167;-74
2023/04/01 07:37:35;;;;;;;3.80;3.50;;;10.30;99.90;;;;;;5092316;28;20496;-74
2023/04/01 07:40:46;;;;;;;2.93;2.73;;;10.30;99.90;;;;;;5092247;28;20176;-74
2023/04/01 07:43:15;;;;;;;2.77;2.47;;;10.40;99.90;;;;;;5073274;28;20274;-74
2023/04/01 07:46:06;;;;;;;2.63;2.43;;;10.40;99.90;;;;;;5078122;28;20533;-73
2023/04/01 07:48:57;;;;;;;2.77;2.60;;;10.40;99.90;;;;;;5096706;28;20183;-74
2023/04/01 07:51:52;;;;;;;2.90;2.70;;;10.40;99.90;;;;;;5096171;28;20180;-74
2023/04/01 07:54:51;;;;;;;3.40;3.20;;;10.30;99.90;;;;;;5096291;28;20293;-73
2023/04/01 07:57:51;;;;;;;3.13;2.70;;;10.30;99.90;;;;;;5095875;28;20175;-73
2023/04/01 08:00:17;;;;;;;3.33;2.67;;;10.40;99.90;;;;;;5014622;28;20191;-74
2023/04/01 08:03:04;;;;;;;2.63;2.27;;;10.20;99.90;;;;;;5014564;28;20290;-74
2023/04/01 08:05:46;;;;;;;2.07;1.77;;;10.30;99.90;;;;;;5014047;28;20171;-74
2023/04/01 08:08:15;;;;;;;1.70;1.60;;;10.30;99.90;;;;;;5014087;28;20629;-74
2023/04/01 08:11:01;;;;;;;2.10;1.97;;;10.20;99.90;;;;;;5013707;28;20573;-74
2023/04/01 08:13:39;;;;;;;1.50;1.40;;;10.20;99.90;;;;;;5014013;28;20209;-73
2023/04/01 08:16:16;;;;;;;1.50;1.50;;;10.20;99.90;;;;;;5013810;28;20182;-71
2023/04/01 08:19:10;;;;;;;2.27;1.70;;;10.20;99.90;;;;;;5013483;28;20264;-73
2023/04/01 08:21:58;;;;;;;1.83;1.73;;;10.20;99.90;;;;;;4997701;28;20253;-74
2023/04/01 08:24:27;;;;;;;1.80;1.70;;;10.30;99.90;;;;;;5013511;28;20170;-73
2023/04/01 08:26:58;;;;;;;1.83;1.70;;;10.20;99.90;;;;;;5013890;28;20171;-74
2023/04/01 08:29:37;;;;;;;1.50;1.40;;;10.20;99.90;;;;;;5013394;28;20270;-74
2023/04/01 08:32:10;;;;;;;1.33;1.23;;;10.30;99.90;;;;;;5014119;28;20181;-73
2023/04/01 08:34:41;;;;;;;2.23;1.50;;;10.40;99.90;;;;;;5013947;28;20175;-74
2023/04/01 08:37:14;;;;;;;1.47;1.40;;;10.50;99.90;;;;;;5075444;28;20177;-74
2023/04/01 08:39:58;;;;;;;2.23;1.70;;;10.30;99.90;;;;;;5074645;28;20675;-75
2023/04/01 08:42:54;;;;;;;1.70;1.60;;;10.40;99.90;;;;;;5075640;28;20255;-74
2023/04/01 08:45:30;;;;;;;1.70;1.60;;;10.50;99.90;;;;;;5075047;28;20241;-75
2023/04/01 08:48:17;;;;;;;1.87;1.30;;;10.40;99.90;;;;;;5075447;28;20627;-74
2023/04/01 08:51:03;;;;;;;1.53;1.43;;;10.40;99.90;;;;;;5075043;28;20664;-74
2023/04/01 08:53:50;;;;;;;1.63;1.37;;;10.50;99.90;;;;;;5074407;28;20252;-75
2023/04/01 08:56:35;;;;;;;1.60;1.30;;;10.60;99.90;;;;;;5074964;28;20507;-74
2023/04/01 08:59:21;;;;;;;1.20;1.20;;;10.70;99.90;;;;;;5074767;28;20212;-74
2023/04/01 09:01:52;;;;;;;1.77;1.67;;;10.60;99.90;;;;;;5075154;28;20237;-74
2023/04/01 09:04:41;;;;;;;1.30;1.30;;;10.60;99.90;;;;;;5074979;28;20221;-75
2023/04/01 09:07:25;;;;;;;1.73;1.43;;;10.50;99.90;;;;;;5074086;28;20157;-74
2023/04/01 09:10:22;;;;;;;1.33;1.20;;;10.50;99.90;;;;;;5074462;28;20526;-74
2023/04/01 09:12:59;;;;;;;1.80;1.70;;;10.50;99.90;;;;;;5074806;28;20226;-74
2023/04/01 09:15:34;;;;;;;1.70;1.60;;;10.40;99.90;;;;;;5074713;28;20175;-75
2023/04/01 09:18:16;;;;;;;2.00;1.80;;;10.40;99.90;;;;;;5075497;28;20219;-74
2023/04/01 09:20:56;;;;;;;1.83;1.73;;;10.50;99.90;;;;;;5094841;28;20225;-73
2023/04/01 09:23:52;;;;;;;1.90;1.80;;;10.60;99.90;;;;;;5094238;28;20190;-74
2023/04/01 09:26:31;;;;;;;2.17;1.80;;;10.70;99.90;;;;;;5094536;28;20216;-74
2023/04/01 09:29:24;;;;;;;2.10;2.00;;;10.70;99.90;;;;;;5094536;28;20638;-75
2023/04/01 09:32:27;;;;;;;2.67;1.90;;;10.70;99.90;;;;;;5095128;28;20226;-74
2023/04/01 09:35:13;;;;;;;2.20;2.00;;;10.80;99.90;;;;;;5094209;28;20174;-75
2023/04/01 09:38:00;;;;;;;2.07;1.97;;;10.80;99.90;;;;;;5094326;28;20167;-74
2023/04/01 09:40:48;;;;;;;2.50;2.30;;;10.70;99.90;;;;;;5094157;28;20259;-74
2023/04/01 09:43:45;;;;;;;2.73;2.30;;;10.80;99.90;;;;;;5093664;28;20164;-74
2023/04/01 09:46:31;;;;;;;2.60;2.40;;;10.90;99.90;;;;;;5093646;28;20171;-74
2023/04/01 09:49:06;;;;;;;2.20;2.10;;;10.90;99.90;;;;;;5094233;28;20160;-75
2023/04/01 09:52:14;;;;;;;2.30;2.10;;;11.00;99.90;;;;;;5093601;28;20186;-74
2023/04/01 09:54:46;;;;;;;3.50;2.27;;;11.20;99.90;;;;;;5094318;28;20229;-74
2023/04/01 09:57:17;;;;;;;4.20;2.20;;;11.20;99.90;;;;;;5093760;28;20168;-73
2023/04/01 10:00:05;;;;;;;2.10;2.00;;;11.20;99.90;;;;;;5094013;28;20298;-75
2023/04/01 10:02:45;;;;;;;2.87;2.40;;;11.30;99.90;;;;;;5093159;28;20178;-75
2023/04/01 10:05:38;;;;;;;2.90;2.10;;;11.40;99.90;;;;;;5093615;28;20175;-74
2023/04/01 10:08:15;;;;;;;1.97;1.87;;;11.50;99.90;;;;;;5093948;28;20168;-74
2023/04/01 10:11:18;;;;;;;1.90;1.70;;;11.40;99.90;;;;;;5093617;28;20163;-76
2023/04/01 10:13:50;;;;;;;3.17;1.87;;;11.50;99.90;;;;;;5093331;28;20170;-74
2023/04/01 10:16:27;;;;;;;2.37;2.20;;;11.60;99.90;;;;;;5093571;28;20205;-74
2023/04/01 10:19:34;;;;;;;2.23;2.03;;;11.40;99.90;;;;;;5093046;28;20678;-74
2023/04/01 10:22:45;;;;;;;1.80;1.70;;;11.30;99.90;;;;;;5082109;28;20179;-74
2023/04/01 10:25:14;;;;;;;1.87;1.77;;;11.40;99.90;;;;;;5093492;28;20186;-74
2023/04/01 10:27:57;;;;;;;2.70;2.50;;;11.20;99.90;;;;;;5093376;28;20168;-75
2023/04/01 10:31:01;;;;;;;21.93;15.43;;;11.50;99.90;;;;;;5093399;28;20626;-75
2023/04/01 10:33:53;;;;;;;2.40;2.20;;;11.70;99.90;;;;;;5011284;28;20178;-75
2023/04/01 10:36:35;;;;;;;2.43;1.93;;;11.70;99.90;;;;;;5010387;28;20190;-75
2023/04/01 10:39:29;;;;;;;2.33;1.70;;;11.70;99.90;;;;;;5010985;28;20662;-76
2023/04/01 10:42:14;;;;;;;2.50;1.43;;;11.90;99.90;;;;;;5011217;28;20193;-75
2023/04/01 10:44:48;;;;;;;1.87;1.77;;;12.00;99.90;;;;;;4994793;28;20615;-76
2023/04/01 10:47:45;;;;;;;6.30;4.40;;;12.00;99.90;;;;;;5011434;28;20179;-75
2023/04/01 10:50:25;;;;;;;3.57;2.47;;;12.20;99.90;;;;;;5010245;28;20205;-76
2023/04/01 10:53:16;;;;;;;3.43;3.13;;;12.40;99.90;;;;;;5011021;28;20225;-75
2023/04/01 10:56:05;;;;;;;22.90;20.47;;;12.40;99.90;;;;;;5010638;28;20232;-75
2023/04/01 10:58:52;;;;;;;5.77;5.37;;;12.30;99.90;;;;;;4975361;28;20297;-76
2023/04/01 11:01:35;;;;;;;1.70;1.60;;;12.10;99.90;;;;;;5011171;28;20209;-75
2023/04/01 11:04:38;;;;;;;1.73;1.63;;;11.90;99.90;;;;;;5010324;28;20174;-75
2023/04/01 11:07:41;;;;;;;2.30;2.10;;;11.70;99.90;;;;;;5039200;28;20353;-76
2023/04/01 11:10:25;;;;;;;5.57;5.10;;;11.60;99.90;;;;;;5092615;28;20167;-76
2023/04/01 11:13:17;;;;;;;2.80;2.70;;;11.70;99.90;;;;;;5092529;28;20164;-75
2023/04/01 11:16:07;;;;;;;2.50;2.40;;;11.70;99.90;;;;;;5061624;28;20634;-75
2023/04/01 11:18:51;;;;;;;1.30;1.27;;;12.00;99.90;;;;;;5091242;28;20234;-77
2023/04/01 11:21:49;;;;;;;1.40;1.30;;;12.00;99.90;;;;;;5092317;28;20243;-76
2023/04/01 11:24:33;;;;;;;1.77;1.67;;;11.90;99.90;;;;;;5093032;28;20187;-76
2023/04/01 11:27:37;;;;;;;2.07;1.67;;;11.90;99.90;;;;;;5092337;28;20251;-76
2023/04/01 11:30:06;;;;;;;1.50;1.40;;;12.00;99.90;;;;;;5092852;28;20164;-76
2023/04/01 11:32:47;;;;;;;1.83;1.40;;;12.10;99.90;;;;;;5092153;28;20227;-77
2023/04/01 11:35:29;;;;;;;1.83;1.73;;;12.10;99.90;;;;;;5073974;28;20258;-76
2023/04/01 11:38:16;;;;;;;2.00;1.60;;;12.20;99.90;;;;;;5073937;28;20570;-77
2023/04/01 11:41:05;;;;;;;2.53;2.23;;;12.20;99.90;;;;;;5091821;28;20627;-75
2023/04/01 11:43:49;;;;;;;3.10;2.03;;;12.10;99.90;;;;;;5092728;28;20243;-75
2023/04/01 11:46:25;;;;;;;1.63;1.53;;;12.00;99.90;;;;;;5092319;28;20653;-75
2023/04/01 11:49:03;;;;;;;1.90;1.80;;;12.20;99.90;;;;;;5092289;28;20247;-75
2023/04/01 11:51:38;;;;;;;2.40;1.40;;;12.20;99.90;;;;;;5073809;28;20510;-76
2023/04/01 11:54:03;;;;;;;2.07;1.70;;;12.40;99.90;;;;;;5092513;28;20187;-76
2023/04/01 11:57:06;;;;;;;1.50;1.20;;;12.50;99.90;;;;;;5092367;28;20472;-75
2023/04/01 11:59:53;;;;;;;2.03;1.37;;;12.40;99.90;;;;;;5091509;28;20268;-76
2023/04/01 12:02:40;;;;;;;1.50;1.40;;;12.40;99.90;;;;;;5092091;28;20276;-75
2023/04/01 12:05:22;;;;;;;1.20;1.20;;;12.60;99.90;;;;;;5092233;28;20165;-76
2023/04/01 12:08:31;;;;;;;2.03;1.83;;;12.50;99.90;;;;;;5092011;28;20167;-76
2023/04/01 12:11:16;;;;;;;1.50;1.40;;;12.30;99.90;;;;;;5027125;28;20187;-75
2023/04/01 12:14:19;;;;;;;1.80;1.70;;;12.20;99.90;;;;;;5091755;28;20201;-75
2023/04/01 12:17:02;;;;;;;1.93;1.40;;;12.20;99.90;;;;;;5091945;28;20175;-75
2023/04/01 12:19:58;;;;;;;1.93;1.70;;;12.20;99.90;;;;;;5091610;28;20227;-76
2023/04/01 12:22:51;;;;;;;1.50;1.40;;;12.30;99.90;;;;;;5091199;28;20186;-76
2023/04/01 12:25:46;;;;;;;2.17;1.70;;;12.50;99.90;;;;;;5091891;28;20168;-75
2023/04/01 12:28:30;;;;;;;2.70;1.93;;;12.40;99.90;;;;;;5092206;28;20172;-76
2023/04/01 12:31:01;;;;;;;2.87;2.00;;;12.10;99.90;;;;;;5095288;28;20172;-75
2023/04/01 12:33:52;;;;;;;2.77;2.57;;;11.90;99.90;;;;;;5095021;28;20164;-75
2023/04/01 12:36:35;;;;;;;2.60;2.10;;;11.60;99.90;;;;;;5094828;28;20172;-75
2023/04/01 12:39:20;;;;;;;3.20;3.00;;;11.50;99.90;;;;;;5095119;28;20278;-76
2023/04/01 12:42:07;;;;;;;4.13;2.37;;;11.60;99.90;;;;;;5095244;28;20271;-75
2023/04/01 12:44:37;;;;;;;3.27;2.63;;;11.60;99.90;;;;;;5094864;28;20190;-75
2023/04/01 12:47:25;;;;;;;2.60;2.40;;;11.50;99.90;;;;;;5095690;28;20191;-75
2023/04/01 12:49:56;;;;;;;3.13;2.20;;;11.70;99.90;;;;;;5095229;28;20171;-76
2023/04/01 12:52:43;;;;;;;4.70;4.40;;;11.60;99.90;;;;;;5095151;28;20237;-74
2023/04/01 12:55:27;;;;;;;2.73;2.30;;;11.40;99.90;;;;;;5094055;28;20176;-74
2023/04/01 12:57:56;;;;;;;3.63;3.33;;;11.20;99.90;;;;;;5094321;28;20203;-76
2023/04/01 13:00:55;;;;;;;2.67;2.20;;;11.20;99.90;;;;;;5094474;28;20598;-75
2023/04/01 13:03:27;;;;;;;2.47;2.37;;;11.10;99.90;;;;;;5095412;28;20313;-75
2023/04/01 13:06:15;;;;;;;2.10;2.00;;;11.20;99.90;;;;;;5094356;28;20245;-75
2023/04/01 13:09:06;;;;;;;2.47;2.37;;;11.20;99.90;;;;;;5094506;28;20172;-75
2023/04/01 13:12:09;;;;;;;2.00;1.80;;;11.20;99.90;;;;;;5095087;28;20163;-75
2023/04/01 13:15:01;;;;;;;2.30;2.00;;;11.20;99.90;;;;;;5094137;28;20270;-74
2023/04/01 13:17:50;;;;;;;5.30;4.80;;;11.40;99.90;;;;;;5094511;28;20255;-75
2023/04/01 13:20:50;;;;;;;2.13;1.93;;;11.50;99.90;;;;;;5093966;28;20212;-76
2023/04/01 13:23:24;;;;;;;4.00;3.60;;;11.20;99.90;;;;;;5094961;28;20171;-76
2023/04/01 13:26:19;;;;;;;2.47;2.37;;;11.20;99.90;;;;;;5094327;28;20172;-75
2023/04/01 13:29:07;;;;;;;1.70;1.60;;;11.30;99.90;;;;;;5093740;28;20325;-75
2023/04/01 13:31:49;;;;;;;1.77;1.67;;;11.40;99.90;;;;;;5094816;28;20278;-75
2023/04/01 13:34:56;;;;;;;4.00;3.70;;;11.30;99.90;;;;;;5093022;28;20264;-75
2023/04/01 13:37:48;;;;;;;3.00;2.80;;;11.40;99.90;;;;;;5094887;28;20684;-75
2023/04/01 13:40:21;;;;;;;1.30;1.30;;;11.50;99.90;;;;;;5094117;28;20225;-75